sensor_id;sensor_type;location;lat;lon;timestamp;temperature;humidity
4308;DHT22;2167;53.448;9.984;2023-03-14T00:02:17;11.30;34.80
4308;DHT22;2167;53.448;9.984;2023-03-14T00:04:42;11.20;34.80
4308;DHT22;2167;53.448;9.984;2023-03-14T00:07:11;11.20;35.20
4308;DHT22;2167;53.448;9.984;2023-03-14T00:09:37;11.20;35.40
4308;DHT22;2167;53.448;9.984;2023-03-14T00:12:02;11.20;35.30
4308;DHT22;2167;53.448;9.984;2023-03-14T00:14:29;11.10;35.60
4308;DHT22;2167;53.448;9.984;2023-03-14T00:16:56;11.10;35.60
4308;DHT22;2167;53.448;9.984;2023-03-14T00:19:22;11.10;35.60
4308;DHT22;2167;53.448;9.984;2023-03-14T00:21:47;11.10;35.70
4308;DHT22;2167;53.448;9.984;2023-03-14T00:24:13;11.00;35.80
4308;DHT22;2167;53.448;9.984;2023-03-14T00:26:39;11.00;36.00
4308;DHT22;2167;53.448;9.984;2023-03-14T00:29:04;11.00;36.00
4308;DHT22;2167;53.448;9.984;2023-03-14T00:31:30;11.00;35.90
4308;DHT22;2167;53.448;9.984;2023-03-14T00:33:56;11.00;35.80
4308;DHT22;2167;53.448;9.984;2023-03-14T00:36:22;11.00;35.40
4308;DHT22;2167;53.448;9.984;2023-03-14T00:38:49;10.90;35.20
4308;DHT22;2167;53.448;9.984;2023-03-14T00:41:18;10.90;35.20
4308;DHT22;2167;53.448;9.984;2023-03-14T00:43:44;10.90;35.30
4308;DHT22;2167;53.448;9.984;2023-03-14T00:46:10;10.90;35.50
4308;DHT22;2167;53.448;9.984;2023-03-14T00:48:36;10.90;35.90
4308;DHT22;2167;53.448;9.984;2023-03-14T00:51:03;10.80;35.80
4308;DHT22;2167;53.448;9.984;2023-03-14T00:53:29;10.90;35.80
4308;DHT22;2167;53.448;9.984;2023-03-14T00:55:54;10.80;35.90
4308;DHT22;2167;53.448;9.984;2023-03-14T00:58:20;10.80;35.90
4308;DHT22;2167;53.448;9.984;2023-03-14T01:00:46;10.90;36.00
4308;DHT22;2167;53.448;9.984;2023-03-14T01:03:13;10.80;35.80
4308;DHT22;2167;53.448;9.984;2023-03-14T01:05:39;10.80;36.00
4308;DHT22;2167;53.448;9.984;2023-03-14T01:08:05;10.80;35.90
4308;DHT22;2167;53.448;9.984;2023-03-14T01:10:32;10.80;36.00
4308;DHT22;2167;53.448;9.984;2023-03-14T01:12:58;10.80;36.60
4308;DHT22;2167;53.448;9.984;2023-03-14T01:15:24;10.80;37.00
4308;DHT22;2167;53.448;9.984;2023-03-14T01:17:49;10.80;37.00
4308;DHT22;2167;53.448;9.984;2023-03-14T01:20:18;10.90;37.40
4308;DHT22;2167;53.448;9.984;2023-03-14T01:22:44;10.90;37.00
4308;DHT22;2167;53.448;9.984;2023-03-14T01:25:14;10.90;36.80
4308;DHT22;2167;53.448;9.984;2023-03-14T01:27:40;10.90;36.60
4308;DHT22;2167;53.448;9.984;2023-03-14T01:30:22;10.90;36.50
4308;DHT22;2167;53.448;9.984;2023-03-14T01:32:52;10.90;36.40
4308;DHT22;2167;53.448;9.984;2023-03-14T01:35:25;11.00;36.20
4308;DHT22;2167;53.448;9.984;2023-03-14T01:37:51;10.90;36.00
4308;DHT22;2167;53.448;9.984;2023-03-14T01:40:16;11.00;35.30
4308;DHT22;2167;53.448;9.984;2023-03-14T01:43:14;11.00;35.20
4308;DHT22;2167;53.448;9.984;2023-03-14T01:49:19;11.00;34.70
4308;DHT22;2167;53.448;9.984;2023-03-14T01:54:46;11.00;34.50
4308;DHT22;2167;53.448;9.984;2023-03-14T01:57:20;11.00;34.70
4308;DHT22;2167;53.448;9.984;2023-03-14T02:00:10;10.90;34.60
4308;DHT22;2167;53.448;9.984;2023-03-14T02:02:38;11.00;34.70
4308;DHT22;2167;53.448;9.984;2023-03-14T02:05:05;10.90;34.30
4308;DHT22;2167;53.448;9.984;2023-03-14T02:07:42;10.90;34.00
4308;DHT22;2167;53.448;9.984;2023-03-14T02:10:11;10.90;33.90
4308;DHT22;2167;53.448;9.984;2023-03-14T02:12:37;10.90;33.80
4308;DHT22;2167;53.448;9.984;2023-03-14T02:15:05;10.90;33.90
4308;DHT22;2167;53.448;9.984;2023-03-14T02:17:30;10.90;32.90
4308;DHT22;2167;53.448;9.984;2023-03-14T02:22:47;10.90;32.60
4308;DHT22;2167;53.448;9.984;2023-03-14T02:27:39;10.90;32.80
4308;DHT22;2167;53.448;9.984;2023-03-14T02:30:24;10.90;31.70
4308;DHT22;2167;53.448;9.984;2023-03-14T02:32:54;10.90;31.20
4308;DHT22;2167;53.448;9.984;2023-03-14T02:35:27;10.90;31.30
4308;DHT22;2167;53.448;9.984;2023-03-14T02:40:35;10.80;32.00
4308;DHT22;2167;53.448;9.984;2023-03-14T02:43:01;10.80;32.50
4308;DHT22;2167;53.448;9.984;2023-03-14T02:45:56;10.80;32.60
4308;DHT22;2167;53.448;9.984;2023-03-14T02:48:26;10.80;32.60
4308;DHT22;2167;53.448;9.984;2023-03-14T02:50:57;10.80;32.90
4308;DHT22;2167;53.448;9.984;2023-03-14T02:53:26;10.70;33.20
4308;DHT22;2167;53.448;9.984;2023-03-14T02:55:52;10.80;33.50
4308;DHT22;2167;53.448;9.984;2023-03-14T02:58:18;10.80;33.00
4308;DHT22;2167;53.448;9.984;2023-03-14T03:00:44;10.80;32.70
4308;DHT22;2167;53.448;9.984;2023-03-14T03:03:10;10.80;32.80
4308;DHT22;2167;53.448;9.984;2023-03-14T03:05:35;10.80;32.80
4308;DHT22;2167;53.448;9.984;2023-03-14T03:08:01;10.80;32.80
4308;DHT22;2167;53.448;9.984;2023-03-14T03:10:27;10.80;32.70
4308;DHT22;2167;53.448;9.984;2023-03-14T03:12:53;10.80;32.60
4308;DHT22;2167;53.448;9.984;2023-03-14T03:15:19;10.80;33.00
4308;DHT22;2167;53.448;9.984;2023-03-14T03:17:45;10.90;32.70
4308;DHT22;2167;53.448;9.984;2023-03-14T03:20:10;10.90;32.40
4308;DHT22;2167;53.448;9.984;2023-03-14T03:22:36;11.00;31.70
4308;DHT22;2167;53.448;9.984;2023-03-14T03:25:03;11.00;31.90
4308;DHT22;2167;53.448;9.984;2023-03-14T03:27:31;11.00;31.10
4308;DHT22;2167;53.448;9.984;2023-03-14T03:29:57;11.00;30.40
4308;DHT22;2167;53.448;9.984;2023-03-14T03:32:23;11.10;30.20
4308;DHT22;2167;53.448;9.984;2023-03-14T03:34:48;11.10;30.20
4308;DHT22;2167;53.448;9.984;2023-03-14T03:37:14;11.10;30.20
4308;DHT22;2167;53.448;9.984;2023-03-14T03:39:40;11.10;30.00
4308;DHT22;2167;53.448;9.984;2023-03-14T03:42:06;11.10;29.60
4308;DHT22;2167;53.448;9.984;2023-03-14T03:44:31;11.20;28.90
4308;DHT22;2167;53.448;9.984;2023-03-14T03:46:57;11.20;28.40
4308;DHT22;2167;53.448;9.984;2023-03-14T03:49:22;11.20;28.30
4308;DHT22;2167;53.448;9.984;2023-03-14T03:51:48;11.20;28.00
4308;DHT22;2167;53.448;9.984;2023-03-14T03:54:14;11.20;27.70
4308;DHT22;2167;53.448;9.984;2023-03-14T03:56:39;11.20;27.70
4308;DHT22;2167;53.448;9.984;2023-03-14T03:59:05;11.10;27.60
4308;DHT22;2167;53.448;9.984;2023-03-14T04:01:31;11.10;27.50
4308;DHT22;2167;53.448;9.984;2023-03-14T04:03:56;11.10;27.50
4308;DHT22;2167;53.448;9.984;2023-03-14T04:06:22;11.10;27.30
4308;DHT22;2167;53.448;9.984;2023-03-14T04:08:47;11.10;27.20
4308;DHT22;2167;53.448;9.984;2023-03-14T04:11:13;11.10;27.20
4308;DHT22;2167;53.448;9.984;2023-03-14T04:13:39;11.10;27.30
4308;DHT22;2167;53.448;9.984;2023-03-14T04:16:14;11.10;27.20
4308;DHT22;2167;53.448;9.984;2023-03-14T04:18:40;11.10;27.00
4308;DHT22;2167;53.448;9.984;2023-03-14T04:21:06;11.10;26.70
4308;DHT22;2167;53.448;9.984;2023-03-14T04:23:32;11.10;26.60
4308;DHT22;2167;53.448;9.984;2023-03-14T04:25:58;11.10;26.60
4308;DHT22;2167;53.448;9.984;2023-03-14T04:28:24;11.10;27.00
4308;DHT22;2167;53.448;9.984;2023-03-14T04:30:50;11.10;26.80
4308;DHT22;2167;53.448;9.984;2023-03-14T04:33:16;11.10;26.50
4308;DHT22;2167;53.448;9.984;2023-03-14T04:35:45;11.10;26.40
4308;DHT22;2167;53.448;9.984;2023-03-14T04:38:11;11.10;26.00
4308;DHT22;2167;53.448;9.984;2023-03-14T04:40:41;11.10;26.20
4308;DHT22;2167;53.448;9.984;2023-03-14T04:43:08;11.20;26.50
4308;DHT22;2167;53.448;9.984;2023-03-14T04:45:35;11.20;25.40
4308;DHT22;2167;53.448;9.984;2023-03-14T04:48:01;11.20;25.60
4308;DHT22;2167;53.448;9.984;2023-03-14T04:50:26;11.30;25.10
4308;DHT22;2167;53.448;9.984;2023-03-14T04:52:52;11.30;24.80
4308;DHT22;2167;53.448;9.984;2023-03-14T04:55:18;11.30;24.30
4308;DHT22;2167;53.448;9.984;2023-03-14T04:57:43;11.20;23.90
4308;DHT22;2167;53.448;9.984;2023-03-14T05:00:10;11.30;24.20
4308;DHT22;2167;53.448;9.984;2023-03-14T05:02:36;11.20;23.70
4308;DHT22;2167;53.448;9.984;2023-03-14T05:05:02;11.20;23.60
4308;DHT22;2167;53.448;9.984;2023-03-14T05:07:28;11.30;23.90
4308;DHT22;2167;53.448;9.984;2023-03-14T05:09:54;11.30;23.90
4308;DHT22;2167;53.448;9.984;2023-03-14T05:12:20;11.30;24.40
4308;DHT22;2167;53.448;9.984;2023-03-14T05:14:46;11.20;24.70
4308;DHT22;2167;53.448;9.984;2023-03-14T05:17:12;11.20;25.40
4308;DHT22;2167;53.448;9.984;2023-03-14T05:19:40;11.20;25.50
4308;DHT22;2167;53.448;9.984;2023-03-14T05:22:06;11.10;25.90
4308;DHT22;2167;53.448;9.984;2023-03-14T05:24:32;11.10;26.30
4308;DHT22;2167;53.448;9.984;2023-03-14T05:26:57;11.10;26.50
4308;DHT22;2167;53.448;9.984;2023-03-14T05:29:23;11.10;27.00
4308;DHT22;2167;53.448;9.984;2023-03-14T05:31:49;11.10;27.00
4308;DHT22;2167;53.448;9.984;2023-03-14T05:34:14;11.00;27.10
4308;DHT22;2167;53.448;9.984;2023-03-14T05:36:40;11.00;27.30
4308;DHT22;2167;53.448;9.984;2023-03-14T05:39:06;11.00;27.60
4308;DHT22;2167;53.448;9.984;2023-03-14T05:41:31;11.00;27.70
4308;DHT22;2167;53.448;9.984;2023-03-14T05:43:57;11.00;28.10
4308;DHT22;2167;53.448;9.984;2023-03-14T05:46:22;11.00;27.80
4308;DHT22;2167;53.448;9.984;2023-03-14T05:48:48;10.90;27.60
4308;DHT22;2167;53.448;9.984;2023-03-14T05:51:15;10.90;27.70
4308;DHT22;2167;53.448;9.984;2023-03-14T05:53:40;10.90;27.80
4308;DHT22;2167;53.448;9.984;2023-03-14T05:56:06;11.00;28.30
4308;DHT22;2167;53.448;9.984;2023-03-14T05:58:32;11.00;27.70
4308;DHT22;2167;53.448;9.984;2023-03-14T06:01:02;11.00;27.90
4308;DHT22;2167;53.448;9.984;2023-03-14T06:03:28;11.00;26.40
4308;DHT22;2167;53.448;9.984;2023-03-14T06:05:53;11.00;26.80
4308;DHT22;2167;53.448;9.984;2023-03-14T06:08:19;11.00;26.50
4308;DHT22;2167;53.448;9.984;2023-03-14T06:10:45;10.90;26.20
4308;DHT22;2167;53.448;9.984;2023-03-14T06:13:10;10.90;26.20
4308;DHT22;2167;53.448;9.984;2023-03-14T06:15:36;10.90;26.20
4308;DHT22;2167;53.448;9.984;2023-03-14T06:18:02;10.90;26.30
4308;DHT22;2167;53.448;9.984;2023-03-14T06:20:28;10.90;26.30
4308;DHT22;2167;53.448;9.984;2023-03-14T06:22:53;10.90;26.60
4308;DHT22;2167;53.448;9.984;2023-03-14T06:25:19;10.90;26.80
4308;DHT22;2167;53.448;9.984;2023-03-14T06:27:45;10.80;27.00
4308;DHT22;2167;53.448;9.984;2023-03-14T06:30:11;10.80;27.30
4308;DHT22;2167;53.448;9.984;2023-03-14T06:32:36;10.90;26.20
4308;DHT22;2167;53.448;9.984;2023-03-14T06:35:02;10.90;25.40
4308;DHT22;2167;53.448;9.984;2023-03-14T06:37:28;10.80;24.80
4308;DHT22;2167;53.448;9.984;2023-03-14T06:39:54;10.80;24.60
4308;DHT22;2167;53.448;9.984;2023-03-14T06:42:20;10.80;23.70
4308;DHT22;2167;53.448;9.984;2023-03-14T06:44:46;10.80;23.80
4308;DHT22;2167;53.448;9.984;2023-03-14T06:47:12;10.80;23.80
4308;DHT22;2167;53.448;9.984;2023-03-14T06:49:37;10.70;24.30
4308;DHT22;2167;53.448;9.984;2023-03-14T06:52:03;10.80;24.40
4308;DHT22;2167;53.448;9.984;2023-03-14T06:54:29;10.80;24.10
4308;DHT22;2167;53.448;9.984;2023-03-14T06:56:54;10.80;24.80
4308;DHT22;2167;53.448;9.984;2023-03-14T06:59:20;10.90;25.40
4308;DHT22;2167;53.448;9.984;2023-03-14T07:01:46;10.90;24.90
4308;DHT22;2167;53.448;9.984;2023-03-14T07:04:13;10.90;24.40
4308;DHT22;2167;53.448;9.984;2023-03-14T07:06:39;11.00;24.70
4308;DHT22;2167;53.448;9.984;2023-03-14T07:09:12;11.00;24.70
4308;DHT22;2167;53.448;9.984;2023-03-14T07:11:38;11.10;23.70
4308;DHT22;2167;53.448;9.984;2023-03-14T07:14:03;11.00;23.70
4308;DHT22;2167;53.448;9.984;2023-03-14T07:16:29;11.00;24.30
4308;DHT22;2167;53.448;9.984;2023-03-14T07:18:59;11.00;24.60
4308;DHT22;2167;53.448;9.984;2023-03-14T07:21:25;11.00;24.30
4308;DHT22;2167;53.448;9.984;2023-03-14T07:23:51;11.00;23.70
4308;DHT22;2167;53.448;9.984;2023-03-14T07:26:16;11.00;23.50
4308;DHT22;2167;53.448;9.984;2023-03-14T07:28:42;11.00;22.90
4308;DHT22;2167;53.448;9.984;2023-03-14T07:31:08;11.00;21.50
4308;DHT22;2167;53.448;9.984;2023-03-14T07:33:33;11.00;21.90
4308;DHT22;2167;53.448;9.984;2023-03-14T07:35:59;11.10;21.50
4308;DHT22;2167;53.448;9.984;2023-03-14T07:38:26;11.10;21.00
4308;DHT22;2167;53.448;9.984;2023-03-14T07:41:01;11.10;20.70
4308;DHT22;2167;53.448;9.984;2023-03-14T07:43:27;11.20;21.60
4308;DHT22;2167;53.448;9.984;2023-03-14T07:45:52;11.20;20.30
4308;DHT22;2167;53.448;9.984;2023-03-14T07:48:18;11.30;19.30
4308;DHT22;2167;53.448;9.984;2023-03-14T07:50:47;11.30;19.40
4308;DHT22;2167;53.448;9.984;2023-03-14T07:53:13;11.40;19.90
4308;DHT22;2167;53.448;9.984;2023-03-14T07:55:39;11.40;19.50
4308;DHT22;2167;53.448;9.984;2023-03-14T07:58:05;11.40;19.70
4308;DHT22;2167;53.448;9.984;2023-03-14T08:00:31;11.50;18.70
4308;DHT22;2167;53.448;9.984;2023-03-14T08:02:58;11.50;18.00
4308;DHT22;2167;53.448;9.984;2023-03-14T08:05:23;11.40;18.70
4308;DHT22;2167;53.448;9.984;2023-03-14T08:07:49;11.30;19.70
4308;DHT22;2167;53.448;9.984;2023-03-14T08:10:15;11.20;20.30
4308;DHT22;2167;53.448;9.984;2023-03-14T08:12:57;11.20;20.80
4308;DHT22;2167;53.448;9.984;2023-03-14T08:15:24;11.10;20.40
4308;DHT22;2167;53.448;9.984;2023-03-14T08:17:50;11.10;21.40
4308;DHT22;2167;53.448;9.984;2023-03-14T08:20:24;11.10;21.80
4308;DHT22;2167;53.448;9.984;2023-03-14T08:22:50;11.20;22.10
4308;DHT22;2167;53.448;9.984;2023-03-14T08:25:17;11.20;22.10
4308;DHT22;2167;53.448;9.984;2023-03-14T08:27:43;11.30;22.20
4308;DHT22;2167;53.448;9.984;2023-03-14T08:30:17;11.40;22.00
4308;DHT22;2167;53.448;9.984;2023-03-14T08:32:42;11.40;22.60
4308;DHT22;2167;53.448;9.984;2023-03-14T08:35:09;11.60;21.70
4308;DHT22;2167;53.448;9.984;2023-03-14T08:37:35;11.80;22.00
4308;DHT22;2167;53.448;9.984;2023-03-14T08:40:02;11.80;18.80
4308;DHT22;2167;53.448;9.984;2023-03-14T08:42:32;11.80;17.70
4308;DHT22;2167;53.448;9.984;2023-03-14T08:44:58;11.80;18.30
4308;DHT22;2167;53.448;9.984;2023-03-14T08:47:23;11.70;18.60
4308;DHT22;2167;53.448;9.984;2023-03-14T08:49:49;11.70;18.90
4308;DHT22;2167;53.448;9.984;2023-03-14T08:52:15;11.70;18.00
4308;DHT22;2167;53.448;9.984;2023-03-14T08:54:45;11.60;18.20
4308;DHT22;2167;53.448;9.984;2023-03-14T08:57:11;11.70;18.50
4308;DHT22;2167;53.448;9.984;2023-03-14T08:59:37;11.70;18.70
4308;DHT22;2167;53.448;9.984;2023-03-14T09:02:03;11.80;17.60
4308;DHT22;2167;53.448;9.984;2023-03-14T09:04:30;11.80;17.10
4308;DHT22;2167;53.448;9.984;2023-03-14T09:06:56;11.90;17.30
4308;DHT22;2167;53.448;9.984;2023-03-14T09:09:24;11.90;17.70
4308;DHT22;2167;53.448;9.984;2023-03-14T09:11:50;12.00;17.00
4308;DHT22;2167;53.448;9.984;2023-03-14T09:14:15;12.00;18.20
4308;DHT22;2167;53.448;9.984;2023-03-14T09:16:41;11.90;20.90
4308;DHT22;2167;53.448;9.984;2023-03-14T09:19:06;11.80;22.10
4308;DHT22;2167;53.448;9.984;2023-03-14T09:21:32;11.70;23.50
4308;DHT22;2167;53.448;9.984;2023-03-14T09:23:58;11.70;25.10
4308;DHT22;2167;53.448;9.984;2023-03-14T09:26:23;11.60;25.70
4308;DHT22;2167;53.448;9.984;2023-03-14T09:28:49;11.60;26.40
4308;DHT22;2167;53.448;9.984;2023-03-14T09:31:14;11.60;25.50
4308;DHT22;2167;53.448;9.984;2023-03-14T09:33:40;11.50;26.00
4308;DHT22;2167;53.448;9.984;2023-03-14T09:36:06;11.40;26.40
4308;DHT22;2167;53.448;9.984;2023-03-14T09:38:33;11.40;27.30
4308;DHT22;2167;53.448;9.984;2023-03-14T09:41:00;11.40;28.30
4308;DHT22;2167;53.448;9.984;2023-03-14T09:43:31;11.40;29.50
4308;DHT22;2167;53.448;9.984;2023-03-14T09:46:01;11.40;29.40
4308;DHT22;2167;53.448;9.984;2023-03-14T09:48:31;11.40;28.30
4308;DHT22;2167;53.448;9.984;2023-03-14T09:50:59;11.40;28.20
4308;DHT22;2167;53.448;9.984;2023-03-14T09:53:52;11.50;28.10
4308;DHT22;2167;53.448;9.984;2023-03-14T09:56:23;11.40;28.90
4308;DHT22;2167;53.448;9.984;2023-03-14T09:59:03;11.40;29.10
4308;DHT22;2167;53.448;9.984;2023-03-14T10:01:31;11.50;30.00
4308;DHT22;2167;53.448;9.984;2023-03-14T10:04:00;11.30;29.20
4308;DHT22;2167;53.448;9.984;2023-03-14T10:06:29;11.10;27.30
4308;DHT22;2167;53.448;9.984;2023-03-14T10:08:55;10.90;28.60
4308;DHT22;2167;53.448;9.984;2023-03-14T10:11:22;10.50;22.10
4308;DHT22;2167;53.448;9.984;2023-03-14T10:14:09;10.10;21.80
4308;DHT22;2167;53.448;9.984;2023-03-14T10:16:45;9.80;25.00
4308;DHT22;2167;53.448;9.984;2023-03-14T10:19:13;9.70;26.40
4308;DHT22;2167;53.448;9.984;2023-03-14T10:22:00;9.60;27.40
4308;DHT22;2167;53.448;9.984;2023-03-14T10:24:29;9.50;25.90
4308;DHT22;2167;53.448;9.984;2023-03-14T10:26:59;9.30;26.40
4308;DHT22;2167;53.448;9.984;2023-03-14T10:29:28;9.20;27.70
4308;DHT22;2167;53.448;9.984;2023-03-14T10:31:57;9.10;28.60
4308;DHT22;2167;53.448;9.984;2023-03-14T10:34:30;9.00;27.80
4308;DHT22;2167;53.448;9.984;2023-03-14T10:37:18;8.80;27.00
4308;DHT22;2167;53.448;9.984;2023-03-14T10:39:49;8.80;27.60
4308;DHT22;2167;53.448;9.984;2023-03-14T10:42:29;8.60;26.40
4308;DHT22;2167;53.448;9.984;2023-03-14T10:45:05;8.30;27.20
4308;DHT22;2167;53.448;9.984;2023-03-14T10:47:33;8.20;28.00
4308;DHT22;2167;53.448;9.984;2023-03-14T10:50:27;8.10;27.40
4308;DHT22;2167;53.448;9.984;2023-03-14T10:52:54;8.00;27.30
4308;DHT22;2167;53.448;9.984;2023-03-14T10:55:20;7.90;26.40
4308;DHT22;2167;53.448;9.984;2023-03-14T10:57:46;7.70;25.90
4308;DHT22;2167;53.448;9.984;2023-03-14T11:00:30;7.50;25.90
4308;DHT22;2167;53.448;9.984;2023-03-14T11:03:10;7.30;24.40
4308;DHT22;2167;53.448;9.984;2023-03-14T11:05:49;7.20;26.00
4308;DHT22;2167;53.448;9.984;2023-03-14T11:11:29;7.00;25.50
4308;DHT22;2167;53.448;9.984;2023-03-14T11:14:05;6.80;24.20
4308;DHT22;2167;53.448;9.984;2023-03-14T11:22:05;6.20;25.10
4308;DHT22;2167;53.448;9.984;2023-03-14T11:24:54;6.00;25.90
4308;DHT22;2167;53.448;9.984;2023-03-14T11:28:10;6.00;26.30
4308;DHT22;2167;53.448;9.984;2023-03-14T11:33:16;5.90;23.50
4308;DHT22;2167;53.448;9.984;2023-03-14T11:35:51;5.80;21.70
4308;DHT22;2167;53.448;9.984;2023-03-14T11:41:30;5.60;20.50
4308;DHT22;2167;53.448;9.984;2023-03-14T11:43:58;5.60;21.50
4308;DHT22;2167;53.448;9.984;2023-03-14T11:46:35;5.60;21.50
4308;DHT22;2167;53.448;9.984;2023-03-14T11:51:56;5.80;23.10
4308;DHT22;2167;53.448;9.984;2023-03-14T11:54:42;5.80;23.90
4308;DHT22;2167;53.448;9.984;2023-03-14T11:57:18;5.90;24.90
4308;DHT22;2167;53.448;9.984;2023-03-14T12:00:04;6.00;24.70
4308;DHT22;2167;53.448;9.984;2023-03-14T12:08:40;6.10;20.30
4308;DHT22;2167;53.448;9.984;2023-03-14T12:11:16;6.00;17.40
4308;DHT22;2167;53.448;9.984;2023-03-14T12:13:47;5.90;16.60
4308;DHT22;2167;53.448;9.984;2023-03-14T12:18:49;5.80;13.60
4308;DHT22;2167;53.448;9.984;2023-03-14T12:21:15;5.80;13.50
4308;DHT22;2167;53.448;9.984;2023-03-14T12:23:55;5.80;14.40
4308;DHT22;2167;53.448;9.984;2023-03-14T12:26:24;5.80;12.70
4308;DHT22;2167;53.448;9.984;2023-03-14T12:28:52;5.90;15.90
4308;DHT22;2167;53.448;9.984;2023-03-14T12:31:46;5.90;14.80
4308;DHT22;2167;53.448;9.984;2023-03-14T12:39:24;5.90;15.10
4308;DHT22;2167;53.448;9.984;2023-03-14T12:42:18;6.00;16.30
4308;DHT22;2167;53.448;9.984;2023-03-14T12:44:47;6.10;16.80
4308;DHT22;2167;53.448;9.984;2023-03-14T12:49:49;6.30;16.60
4308;DHT22;2167;53.448;9.984;2023-03-14T12:53:02;6.40;16.80
4308;DHT22;2167;53.448;9.984;2023-03-14T13:00:55;6.70;17.10
4308;DHT22;2167;53.448;9.984;2023-03-14T13:03:26;6.70;16.70
4308;DHT22;2167;53.448;9.984;2023-03-14T13:05:58;6.70;16.70
4308;DHT22;2167;53.448;9.984;2023-03-14T13:11:02;6.50;19.00
4308;DHT22;2167;53.448;9.984;2023-03-14T13:13:29;6.50;20.90
4308;DHT22;2167;53.448;9.984;2023-03-14T13:16:00;6.40;18.80
4308;DHT22;2167;53.448;9.984;2023-03-14T13:19:09;6.40;20.30
4308;DHT22;2167;53.448;9.984;2023-03-14T13:21:39;6.30;17.40
4308;DHT22;2167;53.448;9.984;2023-03-14T13:24:07;6.30;13.90
4308;DHT22;2167;53.448;9.984;2023-03-14T13:26:44;6.30;4.40
4308;DHT22;2167;53.448;9.984;2023-03-14T13:29:25;6.30;3.30
4308;DHT22;2167;53.448;9.984;2023-03-14T13:31:54;6.30;1.00
4308;DHT22;2167;53.448;9.984;2023-03-14T13:34:25;6.30;1.00
4308;DHT22;2167;53.448;9.984;2023-03-14T13:36:54;6.40;1.00
4308;DHT22;2167;53.448;9.984;2023-03-14T13:39:23;6.40;1.00
4308;DHT22;2167;53.448;9.984;2023-03-14T13:41:51;6.40;1.00
4308;DHT22;2167;53.448;9.984;2023-03-14T13:44:25;6.50;1.00
4308;DHT22;2167;53.448;9.984;2023-03-14T13:46:51;6.60;1.00
4308;DHT22;2167;53.448;9.984;2023-03-14T13:49:22;6.50;1.00
4308;DHT22;2167;53.448;9.984;2023-03-14T13:51:49;6.50;1.00
4308;DHT22;2167;53.448;9.984;2023-03-14T13:54:17;6.60;1.00
4308;DHT22;2167;53.448;9.984;2023-03-14T13:56:43;6.60;1.00
4308;DHT22;2167;53.448;9.984;2023-03-14T13:59:26;6.60;1.00
4308;DHT22;2167;53.448;9.984;2023-03-14T14:01:53;6.60;1.00
4308;DHT22;2167;53.448;9.984;2023-03-14T14:04:21;6.60;1.00
4308;DHT22;2167;53.448;9.984;2023-03-14T14:06:57;6.60;1.00
4308;DHT22;2167;53.448;9.984;2023-03-14T14:09:27;6.70;1.00
4308;DHT22;2167;53.448;9.984;2023-03-14T14:11:59;6.70;1.00
4308;DHT22;2167;53.448;9.984;2023-03-14T14:17:10;6.70;1.00
4308;DHT22;2167;53.448;9.984;2023-03-14T14:19:36;6.60;1.00
4308;DHT22;2167;53.448;9.984;2023-03-14T14:22:03;6.70;1.00
4308;DHT22;2167;53.448;9.984;2023-03-14T14:24:31;6.70;1.00
4308;DHT22;2167;53.448;9.984;2023-03-14T14:27:16;6.80;1.00
4308;DHT22;2167;53.448;9.984;2023-03-14T14:29:43;6.80;1.00
4308;DHT22;2167;53.448;9.984;2023-03-14T14:32:14;6.90;1.00
4308;DHT22;2167;53.448;9.984;2023-03-14T14:34:46;6.70;1.00
4308;DHT22;2167;53.448;9.984;2023-03-14T14:39:43;6.60;1.00
4308;DHT22;2167;53.448;9.984;2023-03-14T14:42:19;6.60;1.00
4308;DHT22;2167;53.448;9.984;2023-03-14T14:44:47;6.60;1.00
4308;DHT22;2167;53.448;9.984;2023-03-14T14:47:15;6.60;1.00
4308;DHT22;2167;53.448;9.984;2023-03-14T14:49:43;6.70;1.00
4308;DHT22;2167;53.448;9.984;2023-03-14T14:52:30;6.60;1.00
4308;DHT22;2167;53.448;9.984;2023-03-14T14:55:00;6.60;1.00
4308;DHT22;2167;53.448;9.984;2023-03-14T14:57:38;6.60;1.00
4308;DHT22;2167;53.448;9.984;2023-03-14T15:00:09;6.60;1.00
4308;DHT22;2167;53.448;9.984;2023-03-14T15:02:40;6.60;1.00
4308;DHT22;2167;53.448;9.984;2023-03-14T15:05:22;6.60;1.00
4308;DHT22;2167;53.448;9.984;2023-03-14T15:07:48;6.70;1.00
4308;DHT22;2167;53.448;9.984;2023-03-14T15:10:19;6.70;1.00
4308;DHT22;2167;53.448;9.984;2023-03-14T15:12:45;6.60;1.00
4308;DHT22;2167;53.448;9.984;2023-03-14T15:15:13;6.60;1.00
4308;DHT22;2167;53.448;9.984;2023-03-14T15:17:39;6.60;1.00
4308;DHT22;2167;53.448;9.984;2023-03-14T15:20:09;6.60;1.00
4308;DHT22;2167;53.448;9.984;2023-03-14T15:22:35;6.70;1.00
4308;DHT22;2167;53.448;9.984;2023-03-14T15:25:01;6.70;1.00
4308;DHT22;2167;53.448;9.984;2023-03-14T15:27:28;6.80;1.00
4308;DHT22;2167;53.448;9.984;2023-03-14T15:29:56;6.90;1.00
4308;DHT22;2167;53.448;9.984;2023-03-14T15:32:22;7.00;1.00
4308;DHT22;2167;53.448;9.984;2023-03-14T15:34:47;7.00;1.00
4308;DHT22;2167;53.448;9.984;2023-03-14T15:37:15;7.10;1.00
4308;DHT22;2167;53.448;9.984;2023-03-14T15:39:42;7.20;1.00
4308;DHT22;2167;53.448;9.984;2023-03-14T15:42:08;7.20;1.00
4308;DHT22;2167;53.448;9.984;2023-03-14T15:44:34;7.20;1.00
4308;DHT22;2167;53.448;9.984;2023-03-14T15:46:59;7.20;1.00
4308;DHT22;2167;53.448;9.984;2023-03-14T15:49:25;7.10;1.00
4308;DHT22;2167;53.448;9.984;2023-03-14T15:51:50;7.20;1.00
4308;DHT22;2167;53.448;9.984;2023-03-14T15:54:16;7.20;1.00
4308;DHT22;2167;53.448;9.984;2023-03-14T15:56:42;7.10;1.00
4308;DHT22;2167;53.448;9.984;2023-03-14T15:59:08;6.90;1.00
4308;DHT22;2167;53.448;9.984;2023-03-14T16:01:34;7.00;1.00
4308;DHT22;2167;53.448;9.984;2023-03-14T16:03:59;7.00;1.00
4308;DHT22;2167;53.448;9.984;2023-03-14T16:06:27;6.90;1.00
4308;DHT22;2167;53.448;9.984;2023-03-14T16:08:53;6.90;1.00
4308;DHT22;2167;53.448;9.984;2023-03-14T16:11:20;6.80;1.00
4308;DHT22;2167;53.448;9.984;2023-03-14T16:13:46;6.70;1.00
4308;DHT22;2167;53.448;9.984;2023-03-14T16:16:12;6.60;1.00
4308;DHT22;2167;53.448;9.984;2023-03-14T16:18:38;6.60;1.00
4308;DHT22;2167;53.448;9.984;2023-03-14T16:21:13;6.50;1.00
4308;DHT22;2167;53.448;9.984;2023-03-14T16:23:40;6.40;1.00
4308;DHT22;2167;53.448;9.984;2023-03-14T16:26:08;6.50;1.00
4308;DHT22;2167;53.448;9.984;2023-03-14T16:28:34;6.50;1.00
4308;DHT22;2167;53.448;9.984;2023-03-14T16:31:05;6.50;1.00
4308;DHT22;2167;53.448;9.984;2023-03-14T16:33:32;6.50;1.00
4308;DHT22;2167;53.448;9.984;2023-03-14T16:35:59;6.40;1.00
4308;DHT22;2167;53.448;9.984;2023-03-14T16:38:34;6.30;1.00
4308;DHT22;2167;53.448;9.984;2023-03-14T16:41:09;6.20;1.00
4308;DHT22;2167;53.448;9.984;2023-03-14T16:43:35;6.20;1.00
4308;DHT22;2167;53.448;9.984;2023-03-14T16:46:13;6.10;1.00
4308;DHT22;2167;53.448;9.984;2023-03-14T16:48:39;6.10;1.00
4308;DHT22;2167;53.448;9.984;2023-03-14T16:51:05;6.00;1.00
4308;DHT22;2167;53.448;9.984;2023-03-14T16:53:30;5.90;1.00
4308;DHT22;2167;53.448;9.984;2023-03-14T16:55:57;6.00;1.00
4308;DHT22;2167;53.448;9.984;2023-03-14T16:58:23;5.90;1.00
4308;DHT22;2167;53.448;9.984;2023-03-14T17:00:49;5.90;1.00
4308;DHT22;2167;53.448;9.984;2023-03-14T17:03:16;5.90;1.00
4308;DHT22;2167;53.448;9.984;2023-03-14T17:05:47;5.90;1.00
4308;DHT22;2167;53.448;9.984;2023-03-14T17:08:14;5.80;1.00
4308;DHT22;2167;53.448;9.984;2023-03-14T17:10:40;5.80;1.00
4308;DHT22;2167;53.448;9.984;2023-03-14T17:13:05;5.80;1.00
4308;DHT22;2167;53.448;9.984;2023-03-14T17:15:31;5.80;1.00
4308;DHT22;2167;53.448;9.984;2023-03-14T17:17:57;5.80;1.00
4308;DHT22;2167;53.448;9.984;2023-03-14T17:20:22;5.70;1.00
4308;DHT22;2167;53.448;9.984;2023-03-14T17:22:48;5.80;1.00
4308;DHT22;2167;53.448;9.984;2023-03-14T17:25:13;5.80;1.00